createdAt,value
2024-03-01T00:03:51.901Z,86.25
2024-03-01T00:08:55.610Z,86.28
2024-03-01T00:13:59.084Z,86.32
2024-03-01T00:19:02.418Z,86.33
2024-03-01T00:24:08.829Z,86.33
2024-03-01T00:29:12.526Z,86.32
2024-03-01T00:34:15.561Z,86.40
2024-03-01T00:39:18.762Z,86.41
2024-03-01T00:44:22.536Z,86.40
2024-03-01T00:49:26.389Z,86.43
2024-03-01T00:54:29.488Z,86.49
2024-03-01T00:59:32.684Z,86.51
2024-03-01T01:04:36.835Z,86.56
2024-03-01T01:09:40.546Z,86.58
2024-03-01T01:14:44.355Z,86.56
2024-03-01T01:19:47.553Z,86.65
2024-03-01T01:24:51.171Z,86.73
2024-03-01T01:29:54.345Z,86.72
2024-03-01T01:34:57.403Z,86.75
2024-03-01T01:40:00.581Z,86.77
2024-03-01T01:45:04.611Z,86.85
2024-03-01T01:50:08.449Z,86.83
2024-03-01T01:55:12.366Z,86.82
2024-03-01T02:00:15.826Z,86.90
2024-03-01T02:05:19.831Z,86.93
2024-03-01T02:10:23.693Z,86.90
2024-03-01T02:15:28.207Z,86.84
2024-03-01T02:20:33.051Z,86.79
2024-03-01T02:25:36.212Z,86.80
2024-03-01T02:30:39.398Z,86.75
2024-03-01T02:35:42.545Z,86.79
2024-03-01T02:40:45.951Z,86.79
2024-03-01T02:45:49.114Z,86.88
2024-03-01T02:50:52.199Z,86.96
2024-03-01T02:55:55.162Z,86.92
2024-03-01T03:00:58.558Z,87.01
2024-03-01T03:06:01.692Z,87.03
2024-03-01T03:11:05.251Z,87.10
2024-03-01T03:16:08.896Z,87.08
2024-03-01T03:21:11.965Z,87.07
2024-03-01T03:26:15.203Z,87.17
2024-03-01T03:31:18.317Z,87.23
2024-03-01T03:36:21.335Z,87.22
2024-03-01T03:41:24.323Z,87.29
2024-03-01T03:46:27.371Z,87.36
2024-03-01T03:51:31.198Z,87.35
2024-03-01T03:56:34.416Z,87.43
2024-03-01T04:01:37.908Z,87.46
2024-03-01T04:06:41.286Z,87.43
2024-03-01T04:11:44.455Z,87.56
2024-03-01T04:16:47.589Z,87.65
2024-03-01T04:21:53.831Z,87.75
2024-03-01T04:26:57.042Z,87.81
2024-03-01T04:32:00.410Z,87.86
2024-03-01T04:37:04.833Z,87.99
2024-03-01T04:42:10.083Z,87.96
2024-03-01T04:47:13.337Z,87.95
2024-03-01T04:52:16.367Z,88.00
2024-03-01T04:57:19.582Z,88.03
2024-03-01T05:02:22.568Z,88.14
2024-03-01T05:07:25.610Z,88.20
2024-03-01T05:12:28.619Z,88.21
2024-03-01T05:17:42.212Z,88.21
2024-03-01T05:22:45.204Z,88.17
2024-03-01T05:27:50.242Z,88.18
2024-03-01T05:32:53.946Z,88.21
2024-03-01T05:37:59.714Z,88.18
2024-03-01T05:43:05.395Z,88.17
2024-03-01T05:48:13.130Z,88.18
2024-03-01T05:53:17.396Z,88.14
2024-03-01T05:58:21.423Z,88.18
2024-03-01T06:03:24.485Z,88.17
2024-03-01T06:08:27.642Z,88.16
2024-03-01T06:13:30.631Z,88.15
2024-03-01T06:18:34.086Z,88.04
2024-03-01T06:23:37.053Z,87.94
2024-03-01T06:28:40.102Z,87.90
2024-03-01T06:33:43.102Z,87.87
2024-03-01T06:38:46.249Z,87.77
2024-03-01T06:43:49.300Z,87.72
2024-03-01T06:48:52.485Z,87.70
2024-03-01T06:53:55.571Z,87.59
2024-03-01T06:58:58.691Z,87.49
2024-03-01T07:04:02.386Z,87.36
2024-03-01T07:09:06.253Z,87.24
2024-03-01T07:14:12.516Z,87.19
2024-03-01T07:19:15.869Z,87.17
2024-03-01T07:24:19.775Z,87.07
2024-03-01T07:29:22.715Z,86.69
2024-03-01T07:34:25.808Z,86.43
2024-03-01T07:39:28.992Z,86.35
2024-03-01T07:44:31.946Z,86.02
2024-03-01T07:49:35.089Z,85.75
2024-03-01T07:54:38.111Z,85.54
2024-03-01T07:59:41.756Z,84.89
2024-03-01T08:04:45.580Z,84.63
2024-03-01T08:09:50.132Z,84.49
2024-03-01T08:14:53.364Z,84.25
2024-03-01T08:19:56.422Z,83.82
2024-03-01T08:24:59.562Z,83.46
2024-03-01T08:30:03.036Z,83.15
2024-03-01T08:35:08.482Z,82.82
2024-03-01T08:40:58.397Z,82.32
2024-03-01T08:46:06.502Z,82.08
2024-03-01T08:51:10.960Z,81.95
2024-03-01T08:56:18.875Z,80.93
2024-03-01T09:01:30.917Z,79.99
2024-03-01T09:06:34.004Z,78.86
2024-03-01T09:11:37.347Z,78.60
2024-03-01T09:16:40.496Z,77.50
2024-03-01T09:21:43.759Z,75.79
2024-03-01T09:26:48.676Z,75.82
2024-03-01T09:31:52.184Z,75.06
2024-03-01T09:36:55.429Z,74.55
2024-03-01T09:42:30.985Z,74.08
2024-03-01T09:47:51.103Z,73.56
2024-03-01T09:53:38.908Z,71.83
2024-03-01T09:59:19.942Z,70.86
2024-03-01T10:04:41.602Z,70.39
2024-03-01T10:10:22.796Z,69.39
2024-03-01T10:16:33.566Z,68.79
2024-03-01T10:22:20.847Z,68.44
2024-03-01T10:27:40.044Z,67.96
2024-03-01T10:33:35.690Z,67.14
2024-03-01T10:39:00.482Z,66.79
2024-03-01T10:44:38.303Z,66.25
2024-03-01T10:50:08.068Z,65.37
2024-03-01T10:55:25.094Z,65.56
2024-03-01T11:00:29.614Z,65.65
2024-03-01T11:05:50.923Z,65.68
2024-03-01T11:11:10.678Z,66.31
2024-03-01T11:16:19.587Z,66.53
2024-03-01T11:21:28.606Z,65.59
2024-03-01T11:26:44.281Z,65.21
2024-03-01T11:31:53.888Z,65.21
2024-03-01T11:37:19.071Z,64.97
2024-03-01T11:42:41.472Z,63.41
2024-03-01T11:48:50.068Z,63.42
2024-03-01T11:54:23.652Z,63.76
2024-03-01T11:59:46.430Z,63.03
2024-03-01T12:05:13.646Z,63.42
2024-03-01T12:10:19.589Z,62.30
2024-03-01T12:15:41.491Z,62.07
2024-03-01T12:21:02.778Z,62.69
2024-03-01T12:26:10.156Z,63.05
2024-03-01T12:31:25.942Z,62.92
2024-03-01T12:36:48.069Z,62.53
2024-03-01T12:42:18.599Z,62.65
2024-03-01T12:48:08.708Z,62.62
2024-03-01T12:53:50.923Z,62.26
2024-03-01T12:59:30.657Z,62.12
2024-03-01T13:05:27.758Z,62.56
2024-03-01T13:10:32.845Z,62.51
2024-03-01T13:16:19.957Z,63.01
2024-03-01T13:22:05.291Z,61.92
2024-03-01T13:27:44.059Z,61.96
2024-03-01T13:32:52.487Z,61.13
2024-03-01T13:38:06.533Z,61.22
2024-03-01T13:43:24.864Z,60.69
2024-03-01T13:48:35.726Z,60.55
2024-03-01T13:53:44.734Z,60.99
2024-03-01T13:58:48.012Z,60.99
2024-03-01T14:03:55.317Z,61.31
2024-03-01T14:09:15.410Z,61.52
2024-03-01T14:14:19.833Z,61.94
2024-03-01T14:19:23.188Z,61.96
2024-03-01T14:24:26.733Z,62.49
2024-03-01T14:29:30.079Z,62.54
2024-03-01T14:34:42.034Z,60.94
2024-03-01T14:39:46.147Z,59.79
2024-03-01T14:44:55.283Z,59.33
2024-03-01T14:49:58.420Z,59.87
2024-03-01T14:55:01.709Z,60.51
2024-03-01T15:00:19.108Z,60.42
2024-03-01T15:05:24.623Z,60.54
2024-03-01T15:10:27.890Z,61.19
2024-03-01T15:15:30.861Z,61.54
2024-03-01T15:20:43.246Z,61.74
2024-03-01T15:25:47.651Z,62.18
2024-03-01T15:30:50.896Z,62.29
2024-03-01T15:35:54.914Z,62.51
2024-03-01T15:40:58.353Z,63.06
2024-03-01T15:46:05.673Z,63.36
2024-03-01T15:51:08.980Z,63.72
2024-03-01T15:56:13.572Z,64.06
2024-03-01T16:01:18.617Z,64.33
2024-03-01T16:06:23.717Z,64.82
2024-03-01T16:11:28.090Z,65.19
2024-03-01T16:16:35.343Z,65.64
2024-03-01T16:21:39.379Z,66.03
2024-03-01T16:26:42.593Z,66.42
2024-03-01T16:31:45.744Z,66.70
2024-03-01T16:36:48.920Z,67.08
2024-03-01T16:41:54.001Z,67.35
2024-03-01T16:46:57.654Z,67.64
2024-03-01T16:52:04.027Z,67.57
2024-03-01T16:57:19.242Z,67.78
2024-03-01T17:02:38.362Z,68.04
2024-03-01T17:07:49.642Z,68.21
2024-03-01T17:12:55.979Z,68.40
2024-03-01T17:18:02.213Z,68.78
2024-03-01T17:23:06.117Z,69.16
2024-03-01T17:28:09.953Z,69.47
2024-03-01T17:33:13.307Z,69.93
2024-03-01T17:38:17.251Z,70.17
2024-03-01T17:43:20.422Z,70.40
2024-03-01T17:48:23.842Z,70.72
2024-03-01T17:53:26.990Z,71.07
2024-03-01T17:58:30.152Z,71.43
2024-03-01T18:03:33.252Z,71.50
2024-03-01T18:08:37.706Z,72.06
2024-03-01T18:13:42.432Z,72.43
2024-03-01T18:18:45.763Z,72.89
2024-03-01T18:23:49.115Z,73.19
2024-03-01T18:28:52.112Z,73.36
2024-03-01T18:33:55.459Z,73.56
2024-03-01T18:38:58.644Z,73.71
2024-03-01T18:44:02.952Z,74.07
2024-03-01T18:49:08.055Z,74.45
2024-03-01T18:54:15.157Z,74.76
2024-03-01T18:59:18.181Z,75.03
2024-03-01T19:04:21.806Z,75.35
2024-03-01T19:09:25.007Z,75.50
2024-03-01T19:14:31.617Z,75.61
2024-03-01T19:19:34.643Z,75.67
2024-03-01T19:24:37.952Z,75.76
2024-03-01T19:29:40.993Z,76.01
2024-03-01T19:34:44.126Z,76.27
2024-03-01T19:39:47.770Z,76.40
2024-03-01T19:44:50.887Z,76.37
2024-03-01T19:49:58.256Z,76.32
2024-03-01T19:55:01.893Z,76.71
2024-03-01T20:00:10.740Z,76.53
2024-03-01T20:05:16.353Z,76.68
2024-03-01T20:10:19.566Z,77.03
2024-03-01T20:15:22.745Z,77.25
2024-03-01T20:20:25.924Z,77.06
2024-03-01T20:25:29.121Z,77.41
2024-03-01T20:30:32.969Z,77.51
2024-03-01T20:35:35.949Z,77.73
2024-03-01T20:40:39.019Z,77.82
2024-03-01T20:45:42.068Z,77.81
2024-03-01T20:50:45.215Z,77.93
2024-03-01T20:55:49.318Z,78.16
2024-03-01T21:00:52.866Z,78.25
2024-03-01T21:05:55.938Z,78.43
2024-03-01T21:10:59.834Z,78.57
2024-03-01T21:16:03.053Z,78.64
2024-03-01T21:21:06.203Z,78.70
2024-03-01T21:26:09.196Z,78.88
2024-03-01T21:31:12.154Z,79.00
2024-03-01T21:36:15.177Z,79.04
2024-03-01T21:41:18.136Z,79.06
2024-03-01T21:46:23.227Z,78.96
2024-03-01T21:51:26.259Z,79.06
2024-03-01T21:56:29.227Z,79.20
2024-03-01T22:01:32.890Z,79.25
2024-03-01T22:06:37.056Z,79.37
2024-03-01T22:11:40.133Z,79.46
2024-03-01T22:16:43.132Z,79.64
2024-03-01T22:21:46.174Z,79.62
2024-03-01T22:26:49.345Z,79.96
2024-03-01T22:31:52.483Z,79.88
2024-03-01T22:36:55.563Z,79.92
2024-03-01T22:41:58.627Z,79.91
2024-03-01T22:47:01.918Z,80.07
2024-03-01T22:52:06.137Z,80.21
2024-03-01T22:57:15.548Z,80.36
2024-03-01T23:02:20.482Z,80.35
2024-03-01T23:07:23.564Z,80.39
2024-03-01T23:12:28.441Z,80.34
2024-03-01T23:17:33.480Z,80.25
2024-03-01T23:22:36.492Z,80.28
2024-03-01T23:27:39.506Z,80.24
2024-03-01T23:32:45.574Z,80.19
2024-03-01T23:37:48.581Z,80.10
2024-03-01T23:42:51.943Z,80.13
2024-03-01T23:47:55.084Z,80.24
2024-03-01T23:52:58.142Z,80.41
2024-03-01T23:58:01.286Z,80.38
